Time;durP1;ratioP1;P1;durP2;ratioP2;P2;SDS_P1;SDS_P2;PMS_P1;PMS_P2;Temp;Humidity;BMP_temperature;BMP_pressure;BME280_temperature;BME280_humidity;BME280_pressure;Samples;Min_cycle;Max_cycle;Signal;HPM_P1;HPM_P2
2023/09/01 00:01:01;;;;;;;3.30;1.90;;;19.80;1.00;;;;;;5034674;28;20379;-86
2023/09/01 00:03:26;;;;;;;2.00;1.40;;;19.80;1.00;;;;;;5037434;28;20400;-86
2023/09/01 00:05:52;;;;;;;2.33;1.23;;;19.80;1.00;;;;;;5052592;28;20788;-86
2023/09/01 00:08:17;;;;;;;2.20;1.30;;;19.90;1.00;;;;;;5058304;28;20491;-89
2023/09/01 00:10:44;;;;;;;2.40;1.48;;;20.00;1.00;;;;;;5056933;28;20410;-87
2023/09/01 00:13:09;;;;;;;1.77;1.40;;;19.90;1.00;;;;;;5041277;28;20414;-85
2023/09/01 00:15:35;;;;;;;2.10;1.20;;;19.90;1.00;;;;;;5042708;28;20384;-87
2023/09/01 00:18:00;;;;;;;2.50;1.40;;;19.80;1.00;;;;;;5038558;28;20452;-86
2023/09/01 00:20:26;;;;;;;1.60;1.15;;;19.90;1.00;;;;;;5034332;28;20395;-87
2023/09/01 00:22:52;;;;;;;2.60;1.40;;;19.70;1.00;;;;;;5033266;28;20981;-86
2023/09/01 00:25:17;;;;;;;2.60;1.27;;;19.80;1.00;;;;;;5033219;28;20419;-86
2023/09/01 00:27:43;;;;;;;2.85;1.40;;;19.80;1.00;;;;;;5031516;28;20506;-87
2023/09/01 00:30:09;;;;;;;1.93;1.50;;;19.70;1.00;;;;;;5040971;28;20473;-86
2023/09/01 00:32:35;;;;;;;3.15;1.50;;;19.70;1.00;;;;;;5052567;28;20399;-86
2023/09/01 00:35:02;;;;;;;2.33;1.40;;;19.70;1.00;;;;;;5051602;28;20451;-87
2023/09/01 00:37:28;;;;;;;2.58;1.40;;;19.70;1.00;;;;;;5050811;28;20392;-87
2023/09/01 00:39:54;;;;;;;3.50;1.60;;;19.20;1.00;;;;;;5051798;28;20378;-87
2023/09/01 00:42:19;;;;;;;3.30;1.60;;;19.60;1.00;;;;;;5050671;28;20393;-86
2023/09/01 00:44:45;;;;;;;1.97;1.60;;;19.70;1.00;;;;;;5043595;28;20569;-86
2023/09/01 00:47:12;;;;;;;2.60;1.20;;;19.60;1.00;;;;;;5053335;28;20749;-88
2023/09/01 00:49:38;;;;;;;4.32;1.60;;;19.50;1.00;;;;;;5050727;28;20381;-86
2023/09/01 00:52:04;;;;;;;2.58;1.50;;;19.60;1.00;;;;;;5039718;28;20403;-87
2023/09/01 00:54:31;;;;;;;2.40;1.40;;;19.50;1.00;;;;;;5041098;28;20421;-87
2023/09/01 00:56:56;;;;;;;1.20;1.10;;;19.50;1.00;;;;;;5043428;28;20415;-86
2023/09/01 00:59:23;;;;;;;1.98;1.30;;;19.50;1.00;;;;;;5057031;28;20464;-87
2023/09/01 01:01:49;;;;;;;2.00;1.27;;;19.80;1.00;;;;;;5056690;28;20903;-87
2023/09/01 01:04:17;;;;;;;2.10;1.38;;;19.50;1.00;;;;;;5064829;28;20401;-86
2023/09/01 01:06:52;;;;;;;2.50;1.13;;;19.40;1.00;;;;;;5077531;28;20429;-87
2023/09/01 01:09:33;;;;;;;2.42;1.60;;;19.40;1.00;;;;;;5072108;28;20472;-87
2023/09/01 01:12:13;;;;;;;1.35;1.25;;;19.40;1.00;;;;;;5069832;28;20389;-86
2023/09/01 01:14:53;;;;;;;2.20;1.50;;;19.30;1.00;;;;;;5066613;28;20408;-87
2023/09/01 01:17:19;;;;;;;2.00;1.20;;;19.30;1.00;;;;;;5066784;28;20377;-87
2023/09/01 01:19:54;;;;;;;1.77;1.20;;;19.20;1.00;;;;;;5063491;28;20423;-88
2023/09/01 01:22:28;;;;;;;2.35;1.70;;;19.20;1.00;;;;;;5064052;28;20391;-87
2023/09/01 01:24:54;;;;;;;2.55;1.33;;;19.20;1.00;;;;;;5061821;28;20401;-87
2023/09/01 01:27:19;;;;;;;2.00;1.50;;;19.90;1.00;;;;;;5062446;28;20435;-87
2023/09/01 01:29:47;;;;;;;1.70;1.23;;;19.10;1.00;;;;;;5061735;28;20385;-86
2023/09/01 01:32:13;;;;;;;2.30;1.30;;;19.00;1.00;;;;;;5062718;28;20921;-86
2023/09/01 01:34:49;;;;;;;1.40;1.30;;;19.60;1.00;;;;;;5060526;28;20765;-87
2023/09/01 01:37:28;;;;;;;2.53;1.30;;;19.10;1.00;;;;;;5059283;28;20394;-87
2023/09/01 01:39:56;;;;;;;1.73;1.17;;;19.00;1.00;;;;;;5058273;28;20889;-88
2023/09/01 01:42:23;;;;;;;2.10;1.38;;;19.00;1.00;;;;;;5056984;28;20381;-86
2023/09/01 01:44:51;;;;;;;2.75;1.50;;;19.00;1.00;;;;;;5043986;28;20447;-86
2023/09/01 01:47:20;;;;;;;2.42;1.50;;;19.00;1.00;;;;;;5058400;28;20374;-87
2023/09/01 01:49:45;;;;;;;3.53;1.77;;;19.00;1.00;;;;;;5058607;28;20385;-86
2023/09/01 01:52:11;;;;;;;3.70;1.40;;;19.00;1.00;;;;;;5060018;28;20461;-86
2023/09/01 01:54:36;;;;;;;2.90;1.30;;;18.90;1.00;;;;;;5060179;28;20396;-87
2023/09/01 01:57:02;;;;;;;1.50;1.33;;;18.90;1.00;;;;;;5060652;28;20413;-86
2023/09/01 01:59:28;;;;;;;2.05;1.70;;;18.90;1.00;;;;;;5059017;28;20412;-87
2023/09/01 02:01:53;;;;;;;2.85;1.30;;;18.90;1.00;;;;;;5055689;28;20947;-85
2023/09/01 02:04:19;;;;;;;1.50;1.30;;;18.90;1.00;;;;;;5056736;28;20443;-85
2023/09/01 02:06:44;;;;;;;2.10;1.20;;;18.90;1.00;;;;;;5066192;28;20384;-85
2023/09/01 02:09:10;;;;;;;2.50;1.30;;;18.80;1.00;;;;;;5073207;28;20409;-87
2023/09/01 02:11:36;;;;;;;1.80;1.30;;;18.80;1.00;;;;;;5089636;22;20438;-82
2023/09/01 02:14:02;;;;;;;1.98;1.30;;;18.90;1.00;;;;;;5035443;28;20477;-81
2023/09/01 02:16:27;;;;;;;1.25;1.15;;;18.80;1.00;;;;;;5035663;28;20375;-81
2023/09/01 02:18:53;;;;;;;2.08;1.30;;;18.80;1.00;;;;;;5032959;28;20394;-82
2023/09/01 02:21:19;;;;;;;1.50;1.00;;;18.80;1.00;;;;;;5038205;28;20389;-81
2023/09/01 02:23:46;;;;;;;1.60;0.80;;;18.70;1.00;;;;;;5054793;28;20881;-82
2023/09/01 02:26:20;;;;;;;1.80;1.20;;;18.80;1.00;;;;;;5054523;28;20852;-82
2023/09/01 02:28:46;;;;;;;1.90;1.05;;;18.80;1.00;;;;;;5053413;28;20921;-81
2023/09/01 02:31:12;;;;;;;2.00;1.00;;;18.80;1.00;;;;;;5053474;28;20472;-81
2023/09/01 02:33:37;;;;;;;1.70;1.10;;;18.80;1.00;;;;;;5055320;28;20877;-80
2023/09/01 02:36:22;;;;;;;4.43;1.23;;;18.80;1.00;;;;;;5055877;28;20414;-81
2023/09/01 02:38:47;;;;;;;2.70;1.00;;;18.80;1.00;;;;;;5064087;28;20419;-81
2023/09/01 02:41:13;;;;;;;1.60;1.00;;;18.80;1.00;;;;;;5063608;28;20516;-81
2023/09/01 02:43:38;;;;;;;2.50;1.00;;;18.80;1.00;;;;;;5056895;28;20522;-81
2023/09/01 02:46:04;;;;;;;1.50;1.30;;;18.80;1.00;;;;;;5061951;28;20400;-81
2023/09/01 02:48:30;;;;;;;1.40;1.00;;;18.80;1.00;;;;;;5057160;28;20401;-81
2023/09/01 02:50:55;;;;;;;1.40;1.17;;;18.80;1.00;;;;;;5054233;28;20711;-80
2023/09/01 02:53:21;;;;;;;0.97;0.80;;;18.80;1.00;;;;;;5055076;28;20778;-81
2023/09/01 02:55:46;;;;;;;2.00;1.20;;;18.80;1.00;;;;;;5054400;28;20417;-81
2023/09/01 02:58:12;;;;;;;3.10;1.20;;;18.80;1.00;;;;;;5055919;28;20415;-81
2023/09/01 03:00:38;;;;;;;2.07;0.90;;;18.80;1.00;;;;;;5053091;28;20830;-81
2023/09/01 03:03:03;;;;;;;1.38;0.80;;;18.80;1.00;;;;;;5053373;28;20854;-81
2023/09/01 03:05:29;;;;;;;1.60;1.00;;;18.80;1.00;;;;;;5053971;28;20381;-81
2023/09/01 03:07:57;;;;;;;1.90;0.93;;;18.80;1.00;;;;;;5053239;28;20474;-81
2023/09/01 03:10:23;;;;;;;2.28;1.10;;;18.90;1.00;;;;;;5058742;28;20431;-81
2023/09/01 03:12:49;;;;;;;2.53;1.20;;;18.90;1.00;;;;;;5055256;28;20419;-81
2023/09/01 03:15:15;;;;;;;2.75;1.30;;;19.00;1.00;;;;;;5053379;28;20385;-81
2023/09/01 03:17:40;;;;;;;2.13;0.88;;;18.90;1.00;;;;;;5052897;28;20445;-81
2023/09/01 03:20:09;;;;;;;1.67;1.40;;;18.80;1.00;;;;;;5051901;28;20484;-80
2023/09/01 03:22:35;;;;;;;1.73;1.00;;;18.90;1.00;;;;;;5054085;28;20393;-82
2023/09/01 03:25:01;;;;;;;2.37;1.27;;;19.00;1.00;;;;;;5054384;28;20389;-82
2023/09/01 03:27:26;;;;;;;2.33;1.10;;;19.00;1.00;;;;;;5053877;28;20434;-81
2023/09/01 03:29:55;;;;;;;1.88;1.20;;;19.00;1.00;;;;;;5051725;28;20534;-81
2023/09/01 03:32:21;;;;;;;1.70;1.30;;;19.00;1.00;;;;;;5053915;28;20381;-80
2023/09/01 03:34:47;;;;;;;1.63;1.10;;;19.00;1.00;;;;;;5054005;28;20401;-82
2023/09/01 03:37:13;;;;;;;1.50;0.95;;;19.00;1.00;;;;;;5055261;28;20377;-80
2023/09/01 03:39:38;;;;;;;1.50;1.10;;;19.10;1.00;;;;;;5053551;28;20385;-81
2023/09/01 03:42:04;;;;;;;2.63;1.10;;;19.00;1.00;;;;;;5054536;28;20416;-81
2023/09/01 03:44:30;;;;;;;1.70;1.00;;;19.00;1.00;;;;;;5047109;28;20405;-82
2023/09/01 03:46:55;;;;;;;2.63;1.60;;;19.00;1.00;;;;;;5054185;28;20484;-81
2023/09/01 03:49:21;;;;;;;1.60;1.27;;;18.80;1.00;;;;;;5053483;28;20501;-81
2023/09/01 03:51:47;;;;;;;1.90;1.20;;;18.80;1.00;;;;;;5057133;28;20389;-81
2023/09/01 03:54:12;;;;;;;1.60;1.30;;;18.70;1.00;;;;;;5063557;28;20397;-81
2023/09/01 03:56:38;;;;;;;2.23;1.10;;;18.40;1.00;;;;;;5064859;28;20849;-81
2023/09/01 03:59:03;;;;;;;2.60;1.40;;;18.50;1.00;;;;;;5063200;28;20393;-81
2023/09/01 04:01:29;;;;;;;3.70;1.30;;;18.50;1.00;;;;;;5053609;28;20384;-83
2023/09/01 04:03:54;;;;;;;2.05;1.20;;;18.50;1.00;;;;;;5053807;28;20488;-81
2023/09/01 04:06:20;;;;;;;4.53;1.50;;;18.50;1.00;;;;;;5052239;28;20389;-81
2023/09/01 04:08:46;;;;;;;2.58;1.35;;;18.40;1.00;;;;;;5053889;28;20450;-81
2023/09/01 04:11:11;;;;;;;2.33;1.42;;;18.30;1.00;;;;;;5051508;28;20781;-81
2023/09/01 04:13:37;;;;;;;1.70;1.10;;;18.30;1.00;;;;;;5054085;28;20400;-81
2023/09/01 04:16:03;;;;;;;2.67;1.30;;;18.40;1.00;;;;;;5052837;28;20389;-81
2023/09/01 04:18:30;;;;;;;2.20;1.57;;;18.70;1.00;;;;;;5051390;28;20425;-82
2023/09/01 04:20:56;;;;;;;2.08;1.27;;;18.80;1.00;;;;;;5053398;28;20385;-81
2023/09/01 04:23:21;;;;;;;2.70;1.40;;;19.00;1.00;;;;;;5053196;28;20420;-81
2023/09/01 04:25:47;;;;;;;2.38;1.42;;;19.00;1.00;;;;;;5054842;28;20845;-81
2023/09/01 04:28:15;;;;;;;1.40;1.30;;;19.10;1.00;;;;;;5053143;28;20405;-81
2023/09/01 04:30:42;;;;;;;1.42;1.10;;;19.10;1.00;;;;;;5053830;28;20385;-81
2023/09/01 04:33:07;;;;;;;2.20;1.50;;;19.10;1.00;;;;;;5054718;28;20443;-81
2023/09/01 04:35:33;;;;;;;3.10;1.60;;;19.10;1.00;;;;;;5053867;28;20816;-81
2023/09/01 04:37:59;;;;;;;3.67;2.00;;;19.10;1.00;;;;;;5053094;28;20796;-80
2023/09/01 04:40:25;;;;;;;2.30;1.67;;;19.10;1.00;;;;;;5054269;28;20432;-81
2023/09/01 04:42:51;;;;;;;2.40;1.27;;;19.20;1.00;;;;;;5049299;28;20486;-80
2023/09/01 04:45:17;;;;;;;1.20;1.10;;;19.20;1.00;;;;;;5031782;28;20427;-81
2023/09/01 04:47:42;;;;;;;1.90;1.17;;;19.20;1.00;;;;;;5033438;28;20430;-80
2023/09/01 04:50:08;;;;;;;2.20;1.20;;;19.10;1.00;;;;;;5034527;28;20387;-80
2023/09/01 04:52:34;;;;;;;2.47;1.20;;;19.10;1.00;;;;;;5034865;28;20391;-81
2023/09/01 04:55:00;;;;;;;1.30;1.05;;;19.20;1.00;;;;;;5033817;28;20383;-81
2023/09/01 04:57:27;;;;;;;1.85;1.30;;;19.20;1.00;;;;;;5032808;28;20386;-81
2023/09/01 04:59:52;;;;;;;1.98;1.50;;;19.10;1.00;;;;;;5048602;28;20931;-81
2023/09/01 05:02:18;;;;;;;3.13;1.20;;;19.20;1.00;;;;;;5052699;28;20465;-81
2023/09/01 05:04:44;;;;;;;1.50;1.00;;;19.20;1.00;;;;;;5051245;28;20373;-82
2023/09/01 05:07:10;;;;;;;2.15;1.30;;;19.30;1.00;;;;;;5052160;28;20381;-82
2023/09/01 05:09:35;;;;;;;2.30;1.13;;;19.40;1.00;;;;;;5037697;28;20982;-82
2023/09/01 05:12:01;;;;;;;2.20;1.20;;;19.20;1.00;;;;;;5032685;28;20404;-80
2023/09/01 05:14:26;;;;;;;3.50;1.20;;;19.20;1.00;;;;;;5032792;28;20470;-82
2023/09/01 05:16:52;;;;;;;1.10;1.00;;;19.20;1.00;;;;;;5032276;28;20410;-82
2023/09/01 05:19:17;;;;;;;1.90;1.33;;;19.20;1.00;;;;;;5031013;28;20395;-82
2023/09/01 05:21:43;;;;;;;1.63;1.27;;;19.10;1.00;;;;;;5032988;28;20414;-83
2023/09/01 05:24:09;;;;;;;1.60;1.17;;;19.10;1.00;;;;;;5033455;28;20398;-82
2023/09/01 05:26:34;;;;;;;2.42;1.40;;;19.10;1.00;;;;;;5036561;28;20416;-82
2023/09/01 05:29:00;;;;;;;1.30;1.13;;;19.10;1.00;;;;;;5040368;28;20403;-82
2023/09/01 05:31:26;;;;;;;1.90;1.10;;;19.20;1.00;;;;;;5040877;28;20396;-82
2023/09/01 05:33:52;;;;;;;2.10;1.30;;;19.30;1.00;;;;;;5032098;28;20890;-82
2023/09/01 05:36:17;;;;;;;2.78;1.20;;;19.20;1.00;;;;;;5035356;28;20389;-82
2023/09/01 05:38:43;;;;;;;2.70;1.20;;;19.10;1.00;;;;;;5043514;28;20445;-82
2023/09/01 05:41:10;;;;;;;3.30;1.20;;;19.20;1.00;;;;;;5038142;28;20987;-81
2023/09/01 05:43:36;;;;;;;1.77;1.30;;;19.20;1.00;;;;;;5041022;28;20395;-81
2023/09/01 05:46:02;;;;;;;2.35;1.30;;;19.20;1.00;;;;;;5037036;28;20486;-82
2023/09/01 05:48:27;;;;;;;2.60;1.40;;;19.20;1.00;;;;;;5036512;28;20438;-81
2023/09/01 05:50:53;;;;;;;2.35;1.30;;;19.10;1.00;;;;;;5036198;28;20399;-82
2023/09/01 05:53:19;;;;;;;1.95;1.08;;;19.00;1.00;;;;;;5036398;28;20481;-83
2023/09/01 05:55:44;;;;;;;1.30;1.00;;;19.00;1.00;;;;;;5037325;28;20879;-82
2023/09/01 05:58:10;;;;;;;1.67;1.13;;;19.10;1.00;;;;;;5034209;28;20469;-82
2023/09/01 06:00:36;;;;;;;2.88;1.38;;;19.10;1.00;;;;;;5041749;28;20420;-82
2023/09/01 06:03:03;;;;;;;2.83;1.42;;;19.20;1.00;;;;;;5055532;28;20385;-82
2023/09/01 06:05:29;;;;;;;1.70;1.30;;;19.10;1.00;;;;;;5054718;28;20907;-81
2023/09/01 06:07:55;;;;;;;2.95;1.50;;;19.00;1.00;;;;;;5055497;28;20405;-81
2023/09/01 06:10:20;;;;;;;1.90;1.10;;;18.90;1.00;;;;;;5053726;28;20405;-82
2023/09/01 06:12:46;;;;;;;2.45;1.30;;;19.10;1.00;;;;;;5056154;28;20386;-82
2023/09/01 06:15:12;;;;;;;2.60;1.20;;;19.10;1.00;;;;;;5054585;28;20386;-81
2023/09/01 06:17:37;;;;;;;1.97;1.20;;;19.10;1.00;;;;;;5048393;28;20391;-81
2023/09/01 06:20:04;;;;;;;1.70;1.30;;;19.20;1.00;;;;;;5034131;28;20519;-81
2023/09/01 06:22:30;;;;;;;2.90;1.50;;;19.20;1.00;;;;;;5034111;28;20392;-81
2023/09/01 06:24:55;;;;;;;2.10;1.40;;;19.10;1.00;;;;;;5036690;28;20398;-82
2023/09/01 06:27:21;;;;;;;1.87;1.20;;;19.10;1.00;;;;;;5036271;28;20409;-81
2023/09/01 06:29:47;;;;;;;2.40;1.20;;;19.10;1.00;;;;;;5044720;28;20424;-82
2023/09/01 06:32:13;;;;;;;3.08;1.67;;;19.20;1.00;;;;;;5054978;28;20397;-81
2023/09/01 06:34:39;;;;;;;2.13;1.45;;;19.30;1.00;;;;;;5055646;28;20389;-81
2023/09/01 06:37:05;;;;;;;1.70;1.25;;;19.30;1.00;;;;;;5045978;28;20746;-82
2023/09/01 06:39:30;;;;;;;1.75;1.30;;;19.30;1.00;;;;;;5053505;28;20390;-81
2023/09/01 06:41:56;;;;;;;2.77;1.50;;;19.30;1.00;;;;;;5055284;28;20392;-81
2023/09/01 06:44:22;;;;;;;3.23;1.40;;;19.40;1.00;;;;;;5036654;28;20413;-82
2023/09/01 06:46:49;;;;;;;3.30;1.50;;;20.00;1.00;;;;;;5042359;28;20408;-82
2023/09/01 06:49:15;;;;;;;2.50;1.50;;;19.40;1.00;;;;;;5054064;28;20500;-81
2023/09/01 06:51:41;;;;;;;2.80;1.50;;;19.30;1.00;;;;;;5053939;28;20390;-81
2023/09/01 06:54:06;;;;;;;1.77;1.40;;;19.20;1.00;;;;;;5053982;28;20424;-82
2023/09/01 06:56:32;;;;;;;2.35;1.20;;;19.20;1.00;;;;;;5052844;28;20394;-82
2023/09/01 06:58:57;;;;;;;2.40;1.53;;;19.20;1.00;;;;;;5035563;28;20453;-82
2023/09/01 07:01:23;;;;;;;2.10;1.27;;;19.20;1.00;;;;;;5035157;28;20767;-82
2023/09/01 07:03:48;;;;;;;2.07;1.40;;;19.20;1.00;;;;;;5033881;28;20434;-83
2023/09/01 07:06:14;;;;;;;3.63;1.40;;;19.20;1.00;;;;;;5033701;28;20387;-83
2023/09/01 07:08:39;;;;;;;2.10;1.70;;;19.20;1.00;;;;;;5034558;28;20465;-82
2023/09/01 07:11:10;;;;;;;1.70;1.20;;;19.20;1.00;;;;;;5034296;28;20398;-81
2023/09/01 07:13:35;;;;;;;4.13;1.40;;;19.30;1.00;;;;;;5051156;28;20400;-82
2023/09/01 07:16:01;;;;;;;2.70;1.42;;;19.20;1.00;;;;;;5055875;28;20750;-82
2023/09/01 07:18:28;;;;;;;3.65;1.90;;;19.30;1.00;;;;;;5054585;28;20397;-82
2023/09/01 07:20:58;;;;;;;2.67;1.45;;;19.40;1.00;;;;;;5053634;28;20749;-81
2023/09/01 07:23:24;;;;;;;1.77;1.50;;;19.20;1.00;;;;;;5050728;28;20769;-82
2023/09/01 07:25:49;;;;;;;2.97;1.40;;;19.20;1.00;;;;;;5034718;28;20482;-82
2023/09/01 07:28:15;;;;;;;1.40;1.30;;;19.30;1.00;;;;;;5034826;28;20403;-81
2023/09/01 07:30:40;;;;;;;2.90;1.20;;;19.30;1.00;;;;;;5033218;28;20401;-82
2023/09/01 07:33:06;;;;;;;2.60;1.70;;;19.30;1.00;;;;;;5034652;28;20833;-81
2023/09/01 07:35:32;;;;;;;2.13;1.50;;;19.20;1.00;;;;;;5035223;28;20410;-81
2023/09/01 07:37:57;;;;;;;2.60;1.60;;;19.30;1.00;;;;;;5034045;28;20418;-81
2023/09/01 07:40:23;;;;;;;3.70;1.30;;;19.30;1.00;;;;;;5033832;28;20977;-82
2023/09/01 07:42:49;;;;;;;2.50;1.70;;;19.30;1.00;;;;;;5044113;28;20399;-81
2023/09/01 07:45:15;;;;;;;2.42;1.60;;;19.30;1.00;;;;;;5031698;28;20391;-82
2023/09/01 07:47:42;;;;;;;1.50;1.40;;;19.50;1.00;;;;;;5034203;28;20779;-81
2023/09/01 07:50:08;;;;;;;1.53;1.20;;;19.60;1.00;;;;;;5041058;28;20458;-83
2023/09/01 07:52:34;;;;;;;1.63;1.30;;;19.80;1.00;;;;;;5050481;28;20397;-82
2023/09/01 07:54:59;;;;;;;2.70;1.40;;;19.90;1.00;;;;;;5053757;28;20392;-82
2023/09/01 07:57:25;;;;;;;1.80;1.30;;;20.00;1.00;;;;;;5049674;28;20395;-82
2023/09/01 07:59:51;;;;;;;3.73;2.23;;;20.10;1.00;;;;;;5033340;28;20799;-83
2023/09/01 08:02:16;;;;;;;2.05;0.90;;;20.30;1.00;;;;;;5050623;28;20431;-81
2023/09/01 08:04:42;;;;;;;1.30;1.00;;;20.40;1.00;;;;;;5050868;28;20407;-81
2023/09/01 08:07:07;;;;;;;1.23;1.10;;;20.40;1.00;;;;;;5032607;28;20391;-82
2023/09/01 08:09:33;;;;;;;2.10;0.93;;;20.50;1.00;;;;;;5034680;28;20415;-81
2023/09/01 08:11:58;;;;;;;2.30;1.10;;;20.60;1.00;;;;;;5062468;22;20433;-84
2023/09/01 08:14:24;;;;;;;1.42;0.90;;;20.60;1.00;;;;;;5051594;28;20388;-87
2023/09/01 08:16:50;;;;;;;1.20;1.10;;;20.50;1.00;;;;;;5053149;28;20410;-85
2023/09/01 08:19:15;;;;;;;2.13;0.98;;;20.50;1.00;;;;;;5052098;28;20377;-84
2023/09/01 08:21:41;;;;;;;1.43;1.00;;;19.90;1.00;;;;;;5051206;28;20390;-84
2023/09/01 08:24:07;;;;;;;1.73;1.10;;;20.40;1.00;;;;;;5050700;28;20378;-84
2023/09/01 08:26:33;;;;;;;1.40;1.00;;;20.40;1.00;;;;;;5052038;28;20396;-84
2023/09/01 08:28:59;;;;;;;2.00;0.90;;;20.50;1.00;;;;;;5050734;28;20443;-83
2023/09/01 08:31:24;;;;;;;2.20;1.33;;;20.50;1.00;;;;;;5055152;28;20378;-84
2023/09/01 08:33:50;;;;;;;2.63;1.13;;;20.60;1.00;;;;;;5052610;28;20939;-87
2023/09/01 08:36:15;;;;;;;1.40;1.20;;;20.60;1.00;;;;;;5051109;28;20802;-85
2023/09/01 08:38:41;;;;;;;1.40;1.00;;;20.60;1.00;;;;;;5051205;28;20420;-85
2023/09/01 08:41:06;;;;;;;3.50;1.10;;;20.80;1.00;;;;;;5051973;28;20425;-84
2023/09/01 08:43:40;;;;;;;1.70;1.02;;;20.70;1.00;;;;;;5039716;28;20937;-85
2023/09/01 08:46:07;;;;;;;1.53;1.07;;;20.80;1.00;;;;;;5033449;28;20531;-84
2023/09/01 08:48:34;;;;;;;1.85;1.10;;;21.00;1.00;;;;;;5033431;28;20399;-84
2023/09/01 08:51:00;;;;;;;1.92;1.00;;;21.10;1.00;;;;;;5045214;28;20394;-84
2023/09/01 08:53:26;;;;;;;0.80;0.80;;;20.80;1.00;;;;;;5055684;28;20389;-85
2023/09/01 08:55:53;;;;;;;1.63;0.90;;;21.30;1.00;;;;;;5062096;28;20414;-83
2023/09/01 08:58:19;;;;;;;1.40;0.80;;;20.90;1.00;;;;;;5057481;28;20412;-85
2023/09/01 09:00:45;;;;;;;2.60;0.90;;;21.90;1.00;;;;;;5062347;28;20389;-84
2023/09/01 09:03:16;;;;;;;1.50;0.90;;;21.30;1.00;;;;;;5077126;28;20387;-87
2023/09/01 09:05:44;;;;;;;1.70;0.90;;;21.00;1.00;;;;;;5076686;28;20457;-86
2023/09/01 09:08:09;;;;;;;1.50;0.90;;;21.00;1.00;;;;;;5076136;28;20425;-85
2023/09/01 09:10:43;;;;;;;2.43;1.00;;;21.00;1.00;;;;;;5076073;28;20397;-85
2023/09/01 09:13:30;;;;;;;1.67;0.70;;;21.20;1.00;;;;;;5076237;28;20461;-87
2023/09/01 09:16:13;;;;;;;1.50;0.90;;;21.90;1.00;;;;;;5053409;28;20382;-87
2023/09/01 09:18:44;;;;;;;2.10;1.00;;;21.40;1.00;;;;;;5051379;28;20389;-88
2023/09/01 09:21:27;;;;;;;1.17;0.70;;;21.60;1.00;;;;;;5053496;28;20435;-85
2023/09/01 09:23:54;;;;;;;2.08;1.17;;;21.70;1.00;;;;;;5054235;28;20772;-85
2023/09/01 09:26:27;;;;;;;1.13;0.80;;;21.70;1.00;;;;;;5054346;28;20888;-86
2023/09/01 09:28:53;;;;;;;2.67;1.00;;;22.40;1.00;;;;;;5054293;28;20421;-85
2023/09/01 09:31:30;;;;;;;1.60;0.90;;;21.60;1.00;;;;;;5054213;28;20439;-85
2023/09/01 09:33:56;;;;;;;1.58;1.08;;;22.00;1.00;;;;;;5055215;28;20389;-86
2023/09/01 09:36:36;;;;;;;1.07;0.80;;;21.50;1.00;;;;;;5055127;28;20431;-85
2023/09/01 09:39:03;;;;;;;1.65;1.10;;;21.90;1.00;;;;;;5054846;28;20443;-84
2023/09/01 09:41:44;;;;;;;1.85;0.95;;;21.60;1.00;;;;;;5053281;28;20481;-84
2023/09/01 09:44:10;;;;;;;2.00;1.20;;;22.40;1.00;;;;;;5043049;28;20401;-84
2023/09/01 09:46:44;;;;;;;1.20;1.00;;;21.70;1.00;;;;;;5053805;28;20441;-84
2023/09/01 09:49:13;;;;;;;1.50;0.90;;;21.90;1.00;;;;;;5053449;28;20404;-85
2023/09/01 09:51:41;;;;;;;2.05;1.10;;;22.40;1.00;;;;;;5054688;28;20385;-84
2023/09/01 09:54:10;;;;;;;3.10;1.10;;;20.90;1.00;;;;;;5055854;28;20385;-85
2023/09/01 09:56:38;;;;;;;1.40;1.20;;;20.90;1.00;;;;;;5056251;28;20924;-84
2023/09/01 09:59:05;;;;;;;2.45;1.25;;;21.90;1.00;;;;;;5063789;28;20390;-84
2023/09/01 10:01:35;;;;;;;1.95;1.10;;;21.90;1.00;;;;;;5069250;28;20390;-84
2023/09/01 10:04:04;;;;;;;2.33;1.00;;;22.40;1.00;;;;;;5068623;28;20385;-84
2023/09/01 10:06:31;;;;;;;1.52;0.90;;;22.10;1.00;;;;;;5067413;28;20397;-84
2023/09/01 10:09:00;;;;;;;1.65;1.00;;;22.40;1.00;;;;;;5066984;28;20474;-83
2023/09/01 10:11:28;;;;;;;2.20;1.00;;;22.20;1.00;;;;;;5069014;28;20377;-85
2023/09/01 10:13:55;;;;;;;1.35;0.95;;;22.70;1.00;;;;;;5066164;28;20389;-84
2023/09/01 10:16:23;;;;;;;2.40;1.20;;;22.20;1.00;;;;;;5068064;28;20820;-85
2023/09/01 10:18:50;;;;;;;1.60;1.20;;;22.20;1.00;;;;;;5067171;28;20398;-84
2023/09/01 10:21:20;;;;;;;1.40;1.00;;;21.40;1.00;;;;;;5059869;28;20412;-85
2023/09/01 10:23:46;;;;;;;2.30;1.10;;;22.10;1.00;;;;;;5058093;28;20389;-85
2023/09/01 10:26:25;;;;;;;2.00;0.70;;;21.10;1.00;;;;;;5057333;28;20393;-84
2023/09/01 10:29:01;;;;;;;2.35;0.93;;;22.20;1.00;;;;;;5056701;28;20406;-88
2023/09/01 10:31:28;;;;;;;1.10;1.00;;;22.20;1.00;;;;;;5055566;28;20386;-85
2023/09/01 10:34:13;;;;;;;2.30;1.25;;;21.70;1.00;;;;;;5055046;28;20390;-86
2023/09/01 10:36:40;;;;;;;1.30;1.00;;;22.30;1.00;;;;;;5052880;28;20404;-84
2023/09/01 10:39:24;;;;;;;1.40;1.00;;;21.70;1.00;;;;;;5055204;28;20392;-85
2023/09/01 10:42:02;;;;;;;1.90;1.10;;;22.50;1.00;;;;;;5058053;28;20390;-85
2023/09/01 10:44:42;;;;;;;1.40;1.10;;;22.40;1.00;;;;;;5059186;28;20395;-84
2023/09/01 10:47:32;;;;;;;1.50;0.90;;;22.40;1.00;;;;;;5061370;28;20377;-87
2023/09/01 10:50:03;;;;;;;2.38;1.00;;;22.50;1.00;;;;;;5074266;28;20445;-86
2023/09/01 10:52:31;;;;;;;2.10;1.02;;;22.50;1.00;;;;;;5055221;28;20385;-87
2023/09/01 10:54:59;;;;;;;1.85;0.85;;;24.40;1.00;;;;;;5053424;28;20399;-86
2023/09/01 10:57:49;;;;;;;1.83;0.95;;;22.60;1.00;;;;;;5052533;28;20503;-86
2023/09/01 11:00:30;;;;;;;2.08;1.27;;;22.70;1.00;;;;;;5053906;28;20413;-86
2023/09/01 11:03:31;;;;;;;1.63;1.20;;;22.80;1.00;;;;;;5051931;28;20472;-85
2023/09/01 11:05:57;;;;;;;1.70;1.30;;;23.10;1.00;;;;;;5051838;28;20389;-88
2023/09/01 11:08:25;;;;;;;1.65;1.30;;;23.00;1.00;;;;;;5051759;28;20409;-87
2023/09/01 11:10:55;;;;;;;1.60;1.25;;;22.90;1.00;;;;;;5053076;28;20749;-85
2023/09/01 11:13:22;;;;;;;2.42;1.35;;;23.10;1.00;;;;;;5052070;28;20400;-86
2023/09/01 11:15:49;;;;;;;2.00;1.33;;;23.40;1.00;;;;;;5051544;28;20385;-86
2023/09/01 11:18:19;;;;;;;1.90;1.40;;;23.30;1.00;;;;;;5050931;28;20485;-86
2023/09/01 11:20:52;;;;;;;2.70;1.20;;;23.50;1.00;;;;;;5051566;28;20416;-85
2023/09/01 11:23:20;;;;;;;3.22;1.33;;;23.70;1.00;;;;;;5051361;28;20804;-87
2023/09/01 11:25:53;;;;;;;2.65;1.40;;;24.10;1.00;;;;;;5051243;28;20382;-87
2023/09/01 11:28:20;;;;;;;2.17;1.40;;;24.30;1.00;;;;;;5051060;28;20436;-85
2023/09/01 11:30:53;;;;;;;3.30;1.40;;;23.70;1.00;;;;;;5051876;28;20390;-86
2023/09/01 11:33:21;;;;;;;1.85;1.23;;;25.00;1.00;;;;;;5050873;28;20402;-86
2023/09/01 11:35:47;;;;;;;1.80;1.13;;;25.10;1.00;;;;;;5052503;28;20385;-85
2023/09/01 11:38:20;;;;;;;1.40;1.10;;;25.10;1.00;;;;;;5050726;28;20389;-85
2023/09/01 11:40:50;;;;;;;1.48;1.20;;;25.60;1.00;;;;;;5051771;28;20378;-85
2023/09/01 11:43:16;;;;;;;1.73;1.27;;;26.30;1.00;;;;;;5050117;28;20435;-87
2023/09/01 11:45:49;;;;;;;2.10;1.25;;;25.60;1.00;;;;;;5053241;28;20393;-85
2023/09/01 11:48:24;;;;;;;1.80;1.10;;;25.50;1.00;;;;;;5050650;28;20495;-86
2023/09/01 11:50:53;;;;;;;2.60;1.20;;;25.30;1.00;;;;;;5052151;28;20780;-86
2023/09/01 11:53:23;;;;;;;1.48;1.30;;;25.40;1.00;;;;;;5051104;28;20390;-86
2023/09/01 11:55:50;;;;;;;2.30;1.30;;;25.10;1.00;;;;;;5050928;28;20453;-87
2023/09/01 11:58:15;;;;;;;2.60;1.30;;;25.90;1.00;;;;;;5051804;28;20401;-86
2023/09/01 12:00:41;;;;;;;1.30;1.00;;;24.80;1.00;;;;;;5050522;28;20393;-86
2023/09/01 12:03:08;;;;;;;1.70;1.20;;;25.10;1.00;;;;;;5055014;28;20477;-85
2023/09/01 12:05:40;;;;;;;1.90;1.30;;;25.70;1.00;;;;;;5055608;28;20921;-87
2023/09/01 12:08:09;;;;;;;2.17;1.27;;;26.40;1.00;;;;;;5056724;28;20402;-86
2023/09/01 12:10:35;;;;;;;1.58;1.23;;;26.60;1.00;;;;;;5052140;28;20385;-86
2023/09/01 12:13:09;;;;;;;1.42;1.15;;;26.60;1.00;;;;;;5064180;28;20389;-85
2023/09/01 12:15:58;;;;;;;1.10;1.00;;;26.10;1.00;;;;;;5074056;28;20362;-86
2023/09/01 12:18:32;;;;;;;1.45;1.10;;;25.40;1.00;;;;;;5073376;28;20389;-85
2023/09/01 12:20:58;;;;;;;2.60;1.30;;;25.60;1.00;;;;;;5074475;28;20385;-86
2023/09/01 12:23:31;;;;;;;2.58;1.40;;;26.60;1.00;;;;;;5073570;28;20395;-87
2023/09/01 12:25:58;;;;;;;1.40;1.20;;;25.90;1.00;;;;;;5072344;28;20381;-81
2023/09/01 12:28:26;;;;;;;1.73;1.40;;;26.20;1.00;;;;;;5073276;28;20409;-86
2023/09/01 12:30:53;;;;;;;1.80;1.30;;;25.20;1.00;;;;;;5071617;28;20377;-84
2023/09/01 12:33:19;;;;;;;2.10;1.30;;;26.20;1.00;;;;;;5071936;28;20401;-86
2023/09/01 12:35:44;;;;;;;2.60;1.50;;;25.90;1.00;;;;;;5073664;28;20432;-85
2023/09/01 12:38:10;;;;;;;1.70;1.00;;;25.30;1.00;;;;;;5073011;28;20686;-85
2023/09/01 12:40:35;;;;;;;2.50;1.10;;;25.60;1.00;;;;;;5072682;28;20473;-86
2023/09/01 12:43:02;;;;;;;1.88;1.30;;;25.80;1.00;;;;;;5074359;28;20397;-86
2023/09/01 12:45:29;;;;;;;2.20;1.07;;;25.80;1.00;;;;;;5074943;28;20478;-88
2023/09/01 12:47:54;;;;;;;1.20;1.10;;;25.80;1.00;;;;;;5075139;28;20413;-90
2023/09/01 12:50:20;;;;;;;1.10;0.90;;;25.60;1.00;;;;;;5073915;28;20416;-86
2023/09/01 12:52:45;;;;;;;1.25;1.00;;;26.40;1.00;;;;;;5062593;28;20488;-86
2023/09/01 12:55:11;;;;;;;1.70;1.20;;;26.20;1.00;;;;;;5044722;28;20794;-87
2023/09/01 12:57:36;;;;;;;1.60;1.00;;;26.30;1.00;;;;;;5036924;28;20468;-86
2023/09/01 13:00:02;;;;;;;1.50;1.03;;;26.00;1.00;;;;;;5054651;28;20424;-84